createdAt,value
2023-05-14T00:00:22.227Z,152.60
2023-05-14T00:01:27.172Z,216.52
2023-05-14T00:02:31.970Z,156.68
2023-05-14T00:03:35.415Z,149.02
2023-05-14T00:04:40.239Z,215.32
2023-05-14T00:05:42.428Z,193.20
2023-05-14T00:06:47.148Z,209.70
2023-05-14T00:07:49.302Z,225.07
2023-05-14T00:08:53.920Z,235.13
2023-05-14T00:09:56.051Z,198.50
2023-05-14T00:11:00.710Z,275.70
2023-05-14T00:12:02.860Z,226.88
2023-05-14T00:13:07.540Z,192.32
2023-05-14T00:14:09.615Z,228.02
2023-05-14T00:15:14.316Z,219.82
2023-05-14T00:16:16.481Z,178.15
2023-05-14T00:17:23.943Z,200.13
2023-05-14T00:18:26.119Z,221.95
2023-05-14T00:19:30.952Z,191.00
2023-05-14T00:20:33.052Z,197.02
2023-05-14T00:21:38.684Z,221.73
2023-05-14T00:22:41.111Z,234.98
2023-05-14T00:23:45.794Z,243.48
2023-05-14T00:24:48.009Z,328.52
2023-05-14T00:25:52.641Z,262.30
2023-05-14T00:26:57.291Z,245.10
2023-05-14T00:27:59.602Z,344.60
2023-05-14T00:29:04.454Z,249.45
2023-05-14T00:30:07.519Z,237.05
2023-05-14T00:31:12.420Z,349.58
2023-05-14T00:32:14.531Z,264.25
2023-05-14T00:33:21.837Z,225.35
2023-05-14T00:34:24.000Z,277.25
2023-05-14T00:35:28.661Z,183.35
2023-05-14T00:36:31.430Z,208.20
2023-05-14T00:37:36.603Z,252.77
2023-05-14T00:38:38.659Z,185.07
2023-05-14T00:39:43.328Z,207.85
2023-05-14T00:40:51.255Z,241.98
2023-05-14T00:41:55.968Z,231.73
2023-05-14T00:42:58.029Z,250.75
2023-05-14T00:44:02.766Z,242.40
2023-05-14T00:45:07.110Z,217.25
2023-05-14T00:46:12.712Z,184.25
2023-05-14T00:47:15.125Z,228.55
2023-05-14T00:48:23.011Z,168.60
2023-05-14T00:49:25.518Z,240.70
2023-05-14T00:50:30.353Z,171.55
2023-05-14T00:51:32.368Z,176.02
2023-05-14T00:52:37.624Z,175.38
2023-05-14T00:53:40.172Z,189.98
2023-05-14T00:54:45.335Z,168.50
2023-05-14T00:55:48.982Z,205.00
2023-05-14T00:56:54.007Z,188.27
2023-05-14T00:57:59.313Z,211.65
2023-05-14T00:59:04.315Z,184.20
2023-05-14T01:00:09.072Z,144.80
2023-05-14T01:01:15.496Z,182.98
2023-05-14T01:02:17.586Z,192.05
2023-05-14T01:03:25.026Z,183.98
2023-05-14T01:04:27.372Z,166.05
2023-05-14T01:05:38.845Z,164.23
2023-05-14T01:06:52.191Z,155.35
2023-05-14T01:08:02.013Z,273.27
2023-05-14T01:09:11.914Z,198.32
2023-05-14T01:10:24.543Z,196.25
2023-05-14T01:11:30.667Z,175.05
2023-05-14T01:12:41.255Z,141.48
2023-05-14T01:13:53.959Z,170.70
2023-05-14T01:15:05.360Z,172.80
2023-05-14T01:16:12.501Z,220.57
2023-05-14T01:17:20.206Z,198.65
2023-05-14T01:18:26.463Z,176.43
2023-05-14T01:19:40.414Z,275.95
2023-05-14T01:20:43.113Z,163.23
2023-05-14T01:21:50.394Z,275.33
2023-05-14T01:22:52.544Z,208.02
2023-05-14T01:23:57.187Z,201.43
2023-05-14T01:25:01.825Z,275.67
2023-05-14T01:26:04.395Z,177.38
2023-05-14T01:27:14.488Z,177.10
2023-05-14T01:28:18.489Z,232.25
2023-05-14T01:29:26.395Z,161.43
2023-05-14T01:30:32.182Z,170.57
2023-05-14T01:31:41.922Z,190.88
2023-05-14T01:32:47.703Z,187.30
2023-05-14T01:33:52.798Z,214.60
2023-05-14T01:34:58.806Z,191.63
2023-05-14T01:36:04.931Z,147.93
2023-05-14T01:37:12.154Z,159.80
2023-05-14T01:38:20.931Z,170.55
2023-05-14T01:39:29.036Z,288.10
2023-05-14T01:40:35.762Z,247.57
2023-05-14T01:41:39.602Z,243.93
2023-05-14T01:42:45.062Z,236.98
2023-05-14T01:43:47.819Z,241.60
2023-05-14T01:44:52.706Z,270.00
2023-05-14T01:45:55.609Z,268.58
2023-05-14T01:47:00.364Z,471.73
2023-05-14T01:48:02.901Z,189.80
2023-05-14T01:49:07.600Z,195.63
2023-05-14T01:50:11.308Z,297.70
2023-05-14T01:51:16.759Z,191.30
2023-05-14T01:52:21.553Z,211.32
2023-05-14T01:53:26.349Z,217.40
2023-05-14T01:54:28.433Z,155.38
2023-05-14T01:55:33.245Z,195.38
2023-05-14T01:56:35.535Z,334.83
2023-05-14T01:57:40.231Z,166.38
2023-05-14T01:58:42.368Z,251.60
2023-05-14T01:59:47.048Z,188.93
2023-05-14T02:00:49.185Z,185.40
2023-05-14T02:01:54.186Z,206.95
2023-05-14T02:02:56.521Z,197.25
2023-05-14T02:04:01.572Z,178.93
2023-05-14T02:05:04.938Z,229.98
2023-05-14T02:06:11.853Z,176.20
2023-05-14T02:07:13.921Z,171.30
2023-05-14T02:08:21.421Z,227.32
2023-05-14T02:09:23.578Z,160.18
2023-05-14T02:10:28.222Z,179.80
2023-05-14T02:11:30.260Z,214.73
2023-05-14T02:12:35.038Z,169.27
2023-05-14T02:13:37.151Z,189.07
2023-05-14T02:14:41.838Z,173.77
2023-05-14T02:15:44.099Z,226.63
2023-05-14T02:16:48.888Z,198.30
2023-05-14T02:17:50.922Z,174.95
2023-05-14T02:18:55.726Z,154.27
2023-05-14T02:19:57.978Z,203.13
2023-05-14T02:21:02.666Z,185.18
2023-05-14T02:22:05.142Z,161.63
2023-05-14T02:23:10.063Z,181.50
2023-05-14T02:24:17.501Z,174.38
2023-05-14T02:25:19.763Z,162.13
2023-05-14T02:26:24.836Z,169.88
2023-05-14T02:27:26.926Z,176.07
2023-05-14T02:28:31.589Z,174.02
2023-05-14T02:29:33.678Z,200.93
2023-05-14T02:30:38.288Z,212.88
2023-05-14T02:31:40.565Z,171.98
2023-05-14T02:32:45.372Z,214.68
2023-05-14T02:33:50.051Z,256.13
2023-05-14T02:34:52.176Z,182.25
2023-05-14T02:35:56.935Z,180.98
2023-05-14T02:36:59.011Z,220.68
2023-05-14T02:38:04.180Z,183.25
2023-05-14T02:39:06.243Z,175.95
2023-05-14T02:40:14.419Z,243.60
2023-05-14T02:41:19.120Z,207.73
2023-05-14T02:42:21.231Z,205.48
2023-05-14T02:43:26.067Z,161.57
2023-05-14T02:44:28.162Z,153.95
2023-05-14T02:45:32.865Z,291.13
2023-05-14T02:46:35.462Z,224.23
2023-05-14T02:47:40.237Z,190.23
2023-05-14T02:48:42.475Z,188.00
2023-05-14T02:49:47.124Z,202.10
2023-05-14T02:50:50.030Z,178.13
2023-05-14T02:51:54.712Z,257.48
2023-05-14T02:52:56.866Z,194.02
2023-05-14T02:54:01.481Z,200.60
2023-05-14T02:55:03.699Z,222.30
2023-05-14T02:56:11.062Z,168.13
2023-05-14T02:57:13.741Z,197.98
2023-05-14T02:58:19.293Z,284.92
2023-05-14T02:59:28.398Z,302.38
2023-05-14T03:00:33.555Z,208.15
2023-05-14T03:01:36.250Z,249.88
2023-05-14T03:02:43.729Z,181.13
2023-05-14T03:03:46.612Z,185.25
2023-05-14T03:04:51.399Z,248.02
2023-05-14T03:05:53.724Z,192.45
2023-05-14T03:06:58.449Z,230.00
2023-05-14T03:08:01.161Z,202.55
2023-05-14T03:09:06.137Z,199.02
2023-05-14T03:10:09.346Z,191.57
2023-05-14T03:11:16.632Z,214.70
2023-05-14T03:12:18.810Z,169.48
2023-05-14T03:13:23.511Z,147.13
2023-05-14T03:14:25.586Z,143.20
2023-05-14T03:15:30.276Z,208.73
2023-05-14T03:16:32.376Z,170.07
2023-05-14T03:17:37.387Z,158.90
2023-05-14T03:18:39.639Z,232.30
2023-05-14T03:19:44.297Z,197.02
2023-05-14T03:20:46.469Z,203.10
2023-05-14T03:21:51.163Z,239.75
2023-05-14T03:22:53.331Z,227.98
2023-05-14T03:23:57.999Z,201.32
2023-05-14T03:25:00.145Z,207.98
2023-05-14T03:26:05.153Z,198.80
2023-05-14T03:27:09.790Z,174.77
2023-05-14T03:28:14.470Z,189.35
2023-05-14T03:29:18.282Z,203.27
2023-05-14T03:30:23.115Z,174.35
2023-05-14T03:31:28.236Z,185.38
2023-05-14T03:32:33.104Z,173.43
2023-05-14T03:33:35.267Z,187.85
2023-05-14T03:34:40.063Z,152.23
2023-05-14T03:35:42.396Z,193.43
2023-05-14T03:36:47.062Z,224.52
2023-05-14T03:37:49.629Z,201.70
2023-05-14T03:38:54.280Z,192.95
2023-05-14T03:39:56.404Z,271.38
2023-05-14T03:41:01.199Z,211.18
2023-05-14T03:42:03.734Z,161.57
2023-05-14T03:43:11.514Z,232.43
2023-05-14T03:44:13.960Z,197.45
2023-05-14T03:45:18.635Z,191.55
2023-05-14T03:46:20.710Z,256.10
2023-05-14T03:47:25.397Z,167.45
2023-05-14T03:48:27.610Z,179.15
2023-05-14T03:49:32.433Z,275.83
2023-05-14T03:50:34.551Z,174.43
2023-05-14T03:51:39.179Z,180.10
2023-05-14T03:52:41.474Z,175.63
2023-05-14T03:53:46.178Z,188.57
2023-05-14T03:54:48.332Z,197.13
2023-05-14T03:55:52.984Z,233.10
2023-05-14T03:56:55.071Z,162.20
2023-05-14T03:57:59.856Z,175.32
2023-05-14T03:59:04.545Z,204.70
2023-05-14T04:00:10.745Z,198.30
2023-05-14T04:01:12.985Z,205.70
2023-05-14T04:02:17.807Z,177.88
2023-05-14T04:03:20.061Z,192.20
2023-05-14T04:04:24.788Z,181.57
2023-05-14T04:05:26.915Z,189.00
2023-05-14T04:06:31.607Z,232.70
2023-05-14T04:07:33.727Z,220.05
2023-05-14T04:08:38.503Z,189.13
2023-05-14T04:09:40.593Z,202.40
2023-05-14T04:10:46.513Z,214.00
2023-05-14T04:11:48.609Z,231.63
2023-05-14T04:12:53.476Z,261.15
2023-05-14T04:13:55.737Z,211.25
2023-05-14T04:15:03.008Z,214.18
2023-05-14T04:16:06.112Z,230.50
2023-05-14T04:17:10.821Z,253.52
2023-05-14T04:18:13.076Z,233.38
2023-05-14T04:19:18.271Z,274.83
2023-05-14T04:20:20.619Z,259.92
2023-05-14T04:21:25.411Z,223.32
2023-05-14T04:22:27.451Z,232.57
2023-05-14T04:23:32.250Z,266.10
2023-05-14T04:24:34.324Z,212.32
2023-05-14T04:25:38.981Z,340.80
2023-05-14T04:26:41.063Z,226.02
2023-05-14T04:27:45.978Z,244.70
2023-05-14T04:28:48.070Z,245.23
2023-05-14T04:29:53.473Z,244.30
2023-05-14T04:30:58.242Z,260.40
2023-05-14T04:32:02.991Z,253.93
2023-05-14T04:33:05.108Z,217.05
2023-05-14T04:34:09.784Z,229.05
2023-05-14T04:35:13.069Z,210.50
2023-05-14T04:36:17.862Z,304.58
2023-05-14T04:37:19.932Z,234.60
2023-05-14T04:38:24.693Z,217.32
2023-05-14T04:39:26.773Z,273.10
2023-05-14T04:40:31.549Z,208.77
2023-05-14T04:41:33.616Z,182.27
2023-05-14T04:42:38.276Z,207.90
2023-05-14T04:43:40.633Z,168.75
2023-05-14T04:44:45.258Z,236.15
2023-05-14T04:45:47.447Z,224.27
2023-05-14T04:46:54.800Z,228.80
2023-05-14T04:47:56.920Z,201.55
2023-05-14T04:49:01.698Z,227.57
2023-05-14T04:50:04.485Z,158.30
2023-05-14T04:51:09.273Z,241.55
2023-05-14T04:52:11.745Z,176.38
2023-05-14T04:53:16.417Z,179.82
2023-05-14T04:54:18.592Z,185.05
2023-05-14T04:55:23.520Z,176.13
2023-05-14T04:56:26.143Z,173.90
2023-05-14T04:57:30.816Z,217.27
2023-05-14T04:58:34.788Z,162.30
2023-05-14T04:59:39.930Z,207.32
2023-05-14T05:00:42.220Z,174.93
2023-05-14T05:01:47.076Z,175.38
2023-05-14T05:02:51.772Z,247.68
2023-05-14T05:03:57.956Z,200.30
2023-05-14T05:05:00.117Z,224.93
2023-05-14T05:06:04.947Z,185.15
2023-05-14T05:07:07.131Z,204.50
2023-05-14T05:08:11.779Z,175.45
2023-05-14T05:09:14.355Z,245.98
2023-05-14T05:10:19.033Z,150.55
2023-05-14T05:11:21.508Z,160.02
2023-05-14T05:12:26.288Z,201.60
2023-05-14T05:13:28.453Z,165.95
2023-05-14T05:14:33.195Z,155.13
2023-05-14T05:15:35.465Z,166.93
2023-05-14T05:16:40.140Z,171.82
2023-05-14T05:17:42.313Z,214.77
2023-05-14T05:18:50.206Z,161.88
2023-05-14T05:19:52.972Z,185.13
2023-05-14T05:20:57.638Z,247.07
2023-05-14T05:22:00.520Z,180.13
2023-05-14T05:23:05.261Z,213.70
2023-05-14T05:24:07.833Z,257.02
2023-05-14T05:25:13.143Z,155.52
2023-05-14T05:26:15.214Z,175.88
2023-05-14T05:27:21.224Z,278.55
2023-05-14T05:28:23.256Z,169.38
2023-05-14T05:29:28.075Z,194.05
2023-05-14T05:30:30.460Z,241.82
2023-05-14T05:31:35.405Z,232.85
2023-05-14T05:32:38.041Z,178.52
2023-05-14T05:33:42.983Z,236.85
2023-05-14T05:34:47.683Z,193.23
2023-05-14T05:35:52.664Z,231.93
2023-05-14T05:36:54.743Z,203.10
2023-05-14T05:38:01.703Z,242.23
2023-05-14T05:39:04.247Z,232.85
2023-05-14T05:40:10.822Z,166.65
2023-05-14T05:41:13.026Z,219.40
2023-05-14T05:42:17.697Z,259.92
2023-05-14T05:43:19.819Z,220.43
2023-05-14T05:44:25.184Z,201.02
2023-05-14T05:45:27.308Z,256.95
2023-05-14T05:46:31.989Z,256.90
2023-05-14T05:47:34.149Z,227.05
2023-05-14T05:48:38.958Z,222.13
2023-05-14T05:49:41.005Z,206.85
2023-05-14T05:50:52.069Z,286.85
2023-05-14T05:51:54.173Z,282.80
2023-05-14T05:52:59.390Z,240.13
2023-05-14T05:54:01.507Z,233.93
2023-05-14T05:55:06.932Z,249.20
2023-05-14T05:56:09.221Z,187.20
2023-05-14T05:57:13.938Z,220.30
2023-05-14T05:58:17.396Z,214.43
2023-05-14T05:59:22.231Z,242.00
2023-05-14T06:00:24.958Z,234.68
2023-05-14T06:01:29.980Z,198.30
2023-05-14T06:02:32.210Z,157.90
2023-05-14T06:03:37.004Z,199.77
2023-05-14T06:04:39.071Z,152.75
2023-05-14T06:05:43.974Z,190.77
2023-05-14T06:06:49.002Z,168.70
2023-05-14T06:07:53.845Z,221.88
2023-05-14T06:08:55.877Z,198.13
2023-05-14T06:10:00.546Z,207.30
2023-05-14T06:11:02.683Z,266.65
2023-05-14T06:12:08.482Z,206.13
2023-05-14T06:13:10.944Z,213.40
2023-05-14T06:14:15.642Z,207.93
2023-05-14T06:15:17.834Z,186.25
2023-05-14T06:16:22.597Z,137.20
2023-05-14T06:17:25.132Z,170.27
2023-05-14T06:18:29.868Z,169.07
2023-05-14T06:19:31.975Z,201.57
2023-05-14T06:20:36.940Z,139.30
2023-05-14T06:21:39.080Z,179.32
2023-05-14T06:22:46.360Z,220.23
2023-05-14T06:23:51.267Z,157.52
2023-05-14T06:24:55.997Z,176.02
2023-05-14T06:25:58.049Z,196.70
2023-05-14T06:27:02.761Z,187.07
2023-05-14T06:28:05.215Z,176.07
2023-05-14T06:29:09.934Z,169.43
2023-05-14T06:30:13.640Z,159.57
2023-05-14T06:31:18.326Z,171.05
2023-05-14T06:32:20.866Z,160.27
2023-05-14T06:33:31.087Z,138.10
2023-05-14T06:34:33.654Z,130.82
2023-05-14T06:35:38.434Z,132.57
2023-05-14T06:36:40.534Z,137.27
2023-05-14T06:37:47.967Z,228.35
2023-05-14T06:38:50.102Z,171.10
2023-05-14T06:39:57.016Z,189.18
2023-05-14T06:40:59.990Z,189.90
2023-05-14T06:42:04.789Z,187.27
2023-05-14T06:43:06.899Z,175.25
2023-05-14T06:44:12.048Z,267.27
2023-05-14T06:45:14.152Z,219.50
2023-05-14T06:46:18.893Z,150.07
2023-05-14T06:47:21.001Z,181.20
2023-05-14T06:48:27.956Z,182.25
2023-05-14T06:49:30.330Z,237.10
2023-05-14T06:50:34.957Z,212.85
2023-05-14T06:51:37.008Z,202.35
2023-05-14T06:52:46.114Z,182.27
2023-05-14T06:53:51.561Z,321.00
2023-05-14T06:54:56.286Z,237.80
2023-05-14T06:55:58.408Z,261.27
2023-05-14T06:57:03.185Z,278.33
2023-05-14T06:58:06.857Z,280.25
2023-05-14T06:59:11.562Z,290.52
2023-05-14T07:00:15.838Z,235.25
2023-05-14T07:01:20.578Z,236.07
2023-05-14T07:02:22.714Z,222.05
2023-05-14T07:03:27.497Z,242.02
2023-05-14T07:04:29.616Z,237.75
2023-05-14T07:05:34.432Z,257.50
2023-05-14T07:06:36.637Z,219.25
2023-05-14T07:07:56.598Z,274.45
2023-05-14T07:09:01.950Z,176.13
2023-05-14T07:10:15.669Z,227.00
2023-05-14T07:11:20.568Z,186.27
2023-05-14T07:12:22.686Z,212.32
2023-05-14T07:13:28.876Z,240.77
2023-05-14T07:14:31.166Z,262.60
2023-05-14T07:15:35.909Z,265.17
2023-05-14T07:16:38.119Z,213.45
2023-05-14T07:17:43.164Z,211.65
2023-05-14T07:18:46.105Z,238.60
2023-05-14T07:19:51.288Z,188.50
2023-05-14T07:20:53.438Z,288.30
2023-05-14T07:21:58.203Z,286.52
2023-05-14T07:23:00.286Z,257.40
2023-05-14T07:24:08.860Z,276.33
2023-05-14T07:25:11.235Z,273.02
2023-05-14T07:26:16.025Z,173.95
2023-05-14T07:27:18.245Z,220.70
2023-05-14T07:28:22.914Z,215.02
2023-05-14T07:29:25.522Z,195.02
2023-05-14T07:30:30.210Z,165.05
2023-05-14T07:31:32.430Z,174.95
2023-05-14T07:32:37.195Z,236.05
2023-05-14T07:33:39.338Z,196.35
2023-05-14T07:34:44.014Z,191.60
2023-05-14T07:35:46.556Z,200.18
2023-05-14T07:36:51.432Z,270.00
2023-05-14T07:37:53.616Z,256.17
2023-05-14T07:38:58.470Z,208.32
2023-05-14T07:40:03.331Z,243.85
2023-05-14T07:41:08.372Z,287.80
2023-05-14T07:42:10.498Z,262.80
2023-05-14T07:43:15.343Z,227.85
2023-05-14T07:44:17.487Z,243.63
2023-05-14T07:45:22.581Z,357.42
2023-05-14T07:46:25.974Z,257.92
2023-05-14T07:47:30.763Z,220.57
2023-05-14T07:48:33.030Z,238.95
2023-05-14T07:49:37.839Z,210.27
2023-05-14T07:50:39.943Z,261.95
2023-05-14T07:51:44.678Z,242.45
2023-05-14T07:52:46.848Z,223.13
2023-05-14T07:53:51.683Z,228.45
2023-05-14T07:54:53.805Z,369.30
2023-05-14T07:56:01.789Z,248.30
2023-05-14T07:57:04.176Z,253.05
2023-05-14T07:58:08.875Z,279.65
2023-05-14T07:59:10.969Z,212.45
2023-05-14T08:00:17.039Z,376.60
2023-05-14T08:01:19.293Z,248.25
2023-05-14T08:02:24.002Z,221.40
2023-05-14T08:03:26.354Z,266.60
2023-05-14T08:04:31.343Z,272.27
2023-05-14T08:05:33.514Z,259.98
2023-05-14T08:06:38.121Z,356.60
2023-05-14T08:07:40.237Z,188.57
2023-05-14T08:08:44.899Z,256.90
2023-05-14T08:09:47.036Z,210.73
2023-05-14T08:10:51.715Z,205.55
2023-05-14T08:12:03.901Z,325.27
2023-05-14T08:13:06.105Z,235.15
2023-05-14T08:14:10.856Z,247.45
2023-05-14T08:15:12.968Z,238.10
2023-05-14T08:16:17.671Z,248.23
2023-05-14T08:17:19.794Z,224.50
2023-05-14T08:18:24.455Z,244.65
2023-05-14T08:19:27.609Z,191.95
2023-05-14T08:20:32.759Z,144.85
2023-05-14T08:21:36.066Z,189.18
2023-05-14T08:22:40.846Z,180.30
2023-05-14T08:23:42.927Z,158.82
2023-05-14T08:24:47.741Z,148.38
2023-05-14T08:25:52.428Z,145.27
2023-05-14T08:26:57.362Z,209.38
2023-05-14T08:28:02.409Z,270.38
2023-05-14T08:29:04.518Z,204.05
2023-05-14T08:30:12.408Z,268.25
2023-05-14T08:31:14.871Z,193.20
2023-05-14T08:32:23.680Z,190.48
2023-05-14T08:33:26.117Z,218.88
2023-05-14T08:34:30.926Z,179.98
2023-05-14T08:35:33.028Z,182.50
2023-05-14T08:36:37.747Z,164.73
2023-05-14T08:37:39.950Z,221.93
2023-05-14T08:38:45.609Z,191.57
2023-05-14T08:39:47.902Z,210.10
2023-05-14T08:40:59.932Z,185.45
2023-05-14T08:42:07.155Z,218.45
2023-05-14T08:43:14.259Z,229.70
2023-05-14T08:44:22.685Z,279.85
2023-05-14T08:45:29.283Z,229.30
2023-05-14T08:46:35.363Z,232.57
2023-05-14T08:47:38.092Z,190.43
2023-05-14T08:48:45.183Z,219.70
2023-05-14T08:49:53.010Z,208.93
2023-05-14T08:50:58.002Z,242.07
2023-05-14T08:52:00.908Z,262.85
2023-05-14T08:53:05.622Z,220.77
2023-05-14T08:54:08.368Z,274.30
2023-05-14T08:55:15.528Z,189.93
2023-05-14T08:56:18.509Z,232.00
2023-05-14T08:57:28.035Z,191.32
2023-05-14T08:58:32.686Z,194.75
2023-05-14T08:59:34.862Z,191.60
2023-05-14T09:00:39.554Z,226.10
2023-05-14T09:01:46.715Z,186.43
2023-05-14T09:02:52.115Z,197.02
2023-05-14T09:03:54.925Z,203.32
2023-05-14T09:05:00.985Z,266.75
2023-05-14T09:06:04.699Z,324.77
2023-05-14T09:07:10.366Z,249.25
2023-05-14T09:08:12.737Z,204.05
2023-05-14T09:09:17.527Z,244.82
2023-05-14T09:10:23.091Z,286.38
2023-05-14T09:11:25.335Z,286.95
2023-05-14T09:12:32.747Z,217.88
2023-05-14T09:13:38.380Z,242.73
2023-05-14T09:14:43.103Z,244.75
2023-05-14T09:15:46.467Z,242.43
2023-05-14T09:17:22.636Z,293.60
2023-05-14T09:18:28.063Z,186.88
2023-05-14T09:19:30.258Z,219.63
2023-05-14T09:20:35.591Z,162.45
2023-05-14T09:21:37.924Z,235.60
2023-05-14T09:22:43.081Z,215.65
2023-05-14T09:23:45.840Z,144.27
2023-05-14T09:25:05.765Z,166.45
2023-05-14T09:26:08.168Z,317.25
2023-05-14T09:27:18.676Z,179.90
2023-05-14T09:28:24.615Z,233.80
2023-05-14T09:29:29.594Z,236.45
2023-05-14T09:30:31.832Z,217.50
2023-05-14T09:31:37.587Z,212.77
2023-05-14T09:32:40.865Z,284.35
2023-05-14T09:33:46.529Z,223.85
2023-05-14T09:34:49.093Z,247.85
2023-05-14T09:35:53.765Z,335.88
2023-05-14T09:36:57.646Z,226.63
2023-05-14T09:38:02.366Z,177.10
2023-05-14T09:39:05.380Z,211.43
2023-05-14T09:40:11.073Z,244.50
2023-05-14T09:41:16.542Z,216.32
2023-05-14T09:42:18.600Z,186.50
2023-05-14T09:43:26.251Z,142.73
2023-05-14T09:44:28.827Z,212.95
2023-05-14T09:45:33.519Z,201.65
2023-05-14T09:46:35.572Z,248.60
2023-05-14T09:47:41.707Z,179.68
2023-05-14T09:48:43.999Z,156.35
2023-05-14T09:49:51.486Z,199.25
2023-05-14T09:50:56.158Z,157.50
2023-05-14T09:51:58.761Z,175.38
2023-05-14T09:53:03.569Z,267.42
2023-05-14T09:54:06.355Z,173.18
2023-05-14T09:55:12.009Z,214.02
2023-05-14T09:56:15.654Z,175.85
2023-05-14T09:57:20.323Z,142.90
2023-05-14T09:58:24.951Z,180.88
2023-05-14T09:59:29.641Z,240.63
2023-05-14T10:00:32.495Z,138.82
2023-05-14T10:01:38.108Z,173.77
2023-05-14T10:02:41.710Z,213.60
2023-05-14T10:03:46.663Z,98.10
2023-05-14T10:04:49.437Z,97.88
2023-05-14T10:05:54.516Z,81.40
2023-05-14T10:06:57.203Z,155.18
2023-05-14T10:08:04.594Z,96.82
2023-05-14T10:09:12.621Z,146.65
2023-05-14T10:10:22.047Z,100.05
2023-05-14T10:11:26.189Z,111.72
2023-05-14T10:12:34.177Z,166.32
2023-05-14T10:13:48.405Z,91.13
2023-05-14T10:14:53.986Z,108.05
2023-05-14T10:16:04.440Z,112.65
2023-05-14T10:17:08.053Z,158.90
2023-05-14T10:18:15.142Z,108.63
2023-05-14T10:19:21.133Z,166.18
2023-05-14T10:20:28.775Z,339.83
2023-05-14T10:21:34.348Z,193.52
2023-05-14T10:22:39.012Z,419.25
2023-05-14T10:23:47.087Z,1150.82
2023-05-14T10:24:52.657Z,432.38
2023-05-14T10:25:57.648Z,574.53
2023-05-14T10:27:00.141Z,551.35
2023-05-14T10:28:06.257Z,405.95
2023-05-14T10:29:11.596Z,426.88
2023-05-14T10:30:16.592Z,572.72
2023-05-14T10:31:18.719Z,399.67
2023-05-14T10:32:25.887Z,541.63
2023-05-14T10:33:28.118Z,373.80
2023-05-14T10:34:44.461Z,366.90
2023-05-14T10:35:58.258Z,655.53
2023-05-14T10:37:04.228Z,833.97
2023-05-14T10:38:09.109Z,761.65
2023-05-14T10:39:14.179Z,460.30
2023-05-14T10:40:18.684Z,471.02
2023-05-14T10:41:23.417Z,383.45
2023-05-14T10:42:27.605Z,378.17
2023-05-14T10:43:33.901Z,496.02
2023-05-14T10:44:48.482Z,557.78
2023-05-14T10:45:54.353Z,491.50
2023-05-14T10:46:57.022Z,608.17
2023-05-14T10:48:02.025Z,737.10
2023-05-14T10:49:04.111Z,826.13
2023-05-14T10:50:11.376Z,336.75
2023-05-14T10:51:17.656Z,152.30
2023-05-14T10:52:20.871Z,261.25
2023-05-14T10:53:35.203Z,201.90
2023-05-14T10:54:37.485Z,219.05
2023-05-14T10:55:42.576Z,329.67
2023-05-14T10:56:46.539Z,782.38
2023-05-14T10:57:52.283Z,771.35
2023-05-14T10:58:58.900Z,725.03
2023-05-14T11:00:13.528Z,623.20
2023-05-14T11:01:16.043Z,624.47
2023-05-14T11:02:29.004Z,587.08
2023-05-14T11:03:32.013Z,557.80
2023-05-14T11:04:36.880Z,213.27
2023-05-14T11:05:44.011Z,351.15
2023-05-14T11:06:47.594Z,344.42
2023-05-14T11:07:54.061Z,698.03
2023-05-14T11:08:57.020Z,899.55
2023-05-14T11:10:04.716Z,979.22
2023-05-14T11:11:07.263Z,975.35
2023-05-14T11:12:12.487Z,1098.88
2023-05-14T11:13:18.888Z,1086.28
2023-05-14T11:14:21.890Z,1055.18
2023-05-14T11:15:30.123Z,899.33
2023-05-14T11:16:32.316Z,1089.65
2023-05-14T11:17:39.264Z,1116.32
2023-05-14T11:18:42.114Z,1135.93
2023-05-14T11:19:48.818Z,1112.93
2023-05-14T11:20:54.736Z,1130.93
2023-05-14T11:21:56.823Z,1154.00
2023-05-14T11:23:01.541Z,1119.47
2023-05-14T11:24:05.639Z,1147.45
2023-05-14T11:25:15.027Z,1139.82
2023-05-14T11:26:19.391Z,1144.28
2023-05-14T11:27:26.560Z,1071.47
2023-05-14T11:28:29.936Z,1005.53
2023-05-14T11:29:34.632Z,1053.50
2023-05-14T11:30:41.961Z,1016.80
2023-05-14T11:31:44.819Z,948.28
2023-05-14T11:32:50.766Z,1013.92
2023-05-14T11:33:53.403Z,476.63
2023-05-14T11:34:58.089Z,453.98
2023-05-14T11:36:00.153Z,501.02
2023-05-14T11:37:07.220Z,580.08
2023-05-14T11:38:14.794Z,853.15
2023-05-14T11:39:21.729Z,823.97
2023-05-14T11:40:24.251Z,781.03
2023-05-14T11:41:31.228Z,914.95
2023-05-14T11:42:33.362Z,976.45
2023-05-14T11:43:39.343Z,1032.10
2023-05-14T11:44:42.516Z,1166.57
2023-05-14T11:45:52.774Z,1157.85
2023-05-14T11:46:56.065Z,1174.45
2023-05-14T11:48:00.824Z,1157.25
2023-05-14T11:49:04.635Z,1171.97
2023-05-14T11:50:11.352Z,1213.82
2023-05-14T11:51:13.492Z,1208.63
2023-05-14T11:52:19.859Z,1165.65
2023-05-14T11:53:26.275Z,1192.53
2023-05-14T11:54:31.512Z,1181.32
2023-05-14T11:55:37.428Z,1142.53
2023-05-14T11:56:39.671Z,1103.22
2023-05-14T11:57:44.424Z,1156.95
2023-05-14T11:58:49.072Z,1144.03
2023-05-14T12:00:00.286Z,1170.90
2023-05-14T12:01:05.315Z,664.38
2023-05-14T12:02:13.673Z,769.92
2023-05-14T12:03:16.106Z,1000.38
2023-05-14T12:04:22.824Z,512.90
2023-05-14T12:05:25.581Z,178.18
2023-05-14T12:06:34.081Z,226.02
2023-05-14T12:07:36.506Z,213.00
2023-05-14T12:08:41.221Z,165.20
2023-05-14T12:09:49.870Z,212.52
2023-05-14T12:10:53.482Z,182.85
2023-05-14T12:11:58.145Z,186.93
2023-05-14T12:13:00.246Z,200.52
2023-05-14T12:14:04.904Z,265.17
2023-05-14T12:15:11.884Z,200.60
2023-05-14T12:16:19.374Z,205.23
2023-05-14T12:17:25.907Z,167.93
2023-05-14T12:18:32.537Z,261.58
2023-05-14T12:19:58.798Z,173.27
2023-05-14T12:21:12.364Z,257.00
2023-05-14T12:22:20.837Z,86.38
2023-05-14T12:23:27.710Z,68.28
2023-05-14T12:24:33.656Z,114.97
2023-05-14T12:25:40.022Z,80.88
2023-05-14T12:26:46.720Z,126.55
2023-05-14T12:27:52.361Z,81.95
2023-05-14T12:29:01.239Z,126.28
2023-05-14T12:31:19.916Z,150.70
2023-05-14T12:32:32.665Z,388.25
2023-05-14T12:33:36.438Z,211.63
2023-05-14T12:34:42.683Z,168.18
2023-05-14T12:35:46.259Z,252.23
2023-05-14T12:36:52.454Z,196.25
2023-05-14T12:37:54.546Z,215.40
2023-05-14T12:39:02.014Z,174.98
2023-05-14T12:40:21.295Z,204.70
2023-05-14T12:41:25.815Z,229.60
2023-05-14T12:42:30.694Z,274.90
2023-05-14T12:43:32.877Z,142.48
2023-05-14T12:44:42.334Z,166.30
2023-05-14T12:45:44.682Z,155.65
2023-05-14T12:46:51.624Z,392.15
2023-05-14T12:47:56.620Z,270.70
2023-05-14T12:49:01.366Z,226.93
2023-05-14T12:50:03.567Z,252.60
2023-05-14T12:51:08.368Z,373.10
2023-05-14T12:53:18.705Z,367.92
2023-05-14T12:54:21.250Z,364.45
2023-05-14T12:55:25.903Z,392.83
2023-05-14T12:56:33.332Z,460.02
2023-05-14T12:57:39.711Z,441.85
2023-05-14T12:58:43.820Z,527.17
2023-05-14T12:59:49.625Z,521.53
2023-05-14T13:00:53.381Z,467.35
2023-05-14T13:01:58.133Z,670.05
2023-05-14T13:03:03.009Z,1011.40
2023-05-14T13:04:09.605Z,1161.40
2023-05-14T13:05:12.297Z,1192.63
2023-05-14T13:06:17.123Z,1188.10
2023-05-14T13:07:19.357Z,1089.75
2023-05-14T13:08:25.372Z,1154.97
2023-05-14T13:09:30.871Z,1189.57
2023-05-14T13:10:33.051Z,1208.53
2023-05-14T13:11:43.100Z,1381.95
2023-05-14T13:12:46.710Z,1210.25
2023-05-14T13:13:55.336Z,1222.50
2023-05-14T13:15:01.629Z,1209.95
2023-05-14T13:16:04.360Z,1211.43
2023-05-14T13:17:10.296Z,792.95
2023-05-14T13:18:16.824Z,1079.28
2023-05-14T13:19:21.616Z,1197.82
2023-05-14T13:20:24.855Z,1184.18
2023-05-14T13:21:32.833Z,1176.40
2023-05-14T13:22:36.467Z,1174.28
2023-05-14T13:23:41.611Z,1198.03
2023-05-14T13:24:44.075Z,1207.85
2023-05-14T13:25:50.219Z,1192.10
2023-05-14T13:26:52.949Z,1204.72
2023-05-14T13:27:58.340Z,450.50